LGAVLGPA

Guest
Details From LGAV - Athens Intl Airport Elefterios Venizel
To LGPA - Paros
Flight Number -
Tags generated
Created
Modified
Stats Distance 80 nm / 148 km
Max Altitude 4,100 ft / 1,250 m
Waypoints 3
Social Downloads 11
Likes 0
Share VATSIM

Download

Looking for another format? Having issues loading an existing format? Contact us
Advertisement - Login to hide

Notes

Basic altitude profile: - Ascent Rate: 2500ft/min - Ascent Speed: 250kts - Cruise Altitude: 35000ft - Cruise Speed: 420kts - Descent Rate: 1500ft/min - Descent Speed: 250kts Options: - Use NATs: yes - Use PACOTS: yes - Use low airways: yes - Use high airways: yes

Route

LGAV DILES LGPA

ID Type Via Altitude Latitude Longitude Leg Dist Tot Dist Heading (true) Name
O LGAV APT - 0 ft / 0 m 37.93636˚ 23.94447˚ - 0 nm - Athens Intl Airport Elefterios Venizel
DILES FIX - 4,100 ft / 1,250 m 37.19111˚ 24.78833˚ 60 nm 60 nm 138° / 138° -
O LGPA APT - 0 ft / 0 m 37.01660˚ 25.13330˚ 19 nm 79 nm 122° / 122° Paros

Altitude Profile

Advertisement - Login to hide

LGAV

Details ICAO LGAV (ATH)
Name Athens Intl Airport Elefterios Venizel
Region Greece
Timezone Europe/Athens (UTC+3.0)
Stats Elevation 308 ft / 94 m (AMSL)
Location 37.936357° 23.944470°
Runways 2
Magnetic Variation 4.528° E

METAR

LGAV 271220Z 02016KT 9999 FEW020 BKN040 26/14 Q1016 NOSIG

Decode

TAF

TAF TAF LGAV 271100Z 2712/2812 01020G30KT 9999 FEW020 BKN035 BECMG 2716/2718 02015KT FEW030 BECMG 2804/2806 02017G27KT

Decode

Departure Runways

ID Width Length Bearing (true) Bearing (mag) Surface Threshold Offset Overrun Length
03L 148 ft / 45 m 12,474 ft / 3,802 m 36.51° 31.98° Asphalt 984 ft / 300 m 393 ft / 120 m
03R 148 ft / 45 m 13,131 ft / 4,002 m 36.52° 31.99° Asphalt 984 ft / 300 m 393 ft / 120 m
21L 148 ft / 45 m 13,131 ft / 4,002 m 216.54° 212.01° Asphalt 984 ft / 300 m 393 ft / 120 m
21R 148 ft / 45 m 12,474 ft / 3,802 m 216.53° 212.00° Asphalt 984 ft / 300 m 393 ft / 120 m

LGPA

Details ICAO LGPA (PAS)
Name Paros
Region Greece
Timezone Europe/Athens (UTC+3.0)
Stats Elevation 121 ft / 37 m (AMSL)
Location 37.016602° 25.133297°
Runways 1
Magnetic Variation 4.577° E

METAR

LGPA 271150Z 34012KT 9999 FEW025 24/17 Q1014 NOSIG

Decode

TAF

Not found

Destination Runways

ID Width Length Bearing (true) Bearing (mag) Surface Threshold Offset Overrun Length
18 82 ft / 25 m 2,330 ft / 710 m 180.00° 175.42° Asphalt 0 ft / 0 m 0 ft / 0 m
36 82 ft / 25 m 2,330 ft / 710 m 0.00° 355.42° Asphalt 0 ft / 0 m 0 ft / 0 m

Popular Alternatives